Time;durP1;ratioP1;P1;durP2;ratioP2;P2;SDS_P1;SDS_P2;PMS_P1;PMS_P2;Temp;Humidity;BMP_temperature;BMP_pressure;BME280_temperature;BME280_humidity;BME280_pressure;Samples;Min_cycle;Max_cycle;Signal;HPM_P1;HPM_P2
2021/12/08 00:00:27;;;;;;;9.27;3.65;;;;;;;;;;5105473;28;20047;-62
2021/12/08 00:02:54;;;;;;;6.38;3.80;;;;;;;;;;5104124;28;20047;-61
2021/12/08 00:05:20;;;;;;;13.18;4.43;;;;;;;;;;5085623;28;20050;-61
2021/12/08 00:07:47;;;;;;;6.97;3.38;;;;;;;;;;5085437;28;20141;-60
2021/12/08 00:15:26;;;;;;;15.57;3.88;;;;;;;;;;5085051;28;20132;-61
2021/12/08 00:17:52;;;;;;;16.77;3.72;;;;;;;;;;5085115;28;20314;-60
2021/12/08 00:20:18;;;;;;;9.45;5.03;;;;;;;;;;5084709;28;20055;-62
2021/12/08 00:22:45;;;;;;;11.13;5.55;;;;;;;;;;5085220;28;20131;-61
2021/12/08 00:25:11;;;;;;;13.77;4.82;;;;;;;;;;5085390;28;20050;-62
2021/12/08 00:27:37;;;;;;;17.00;5.10;;;;;;;;;;5105443;28;20059;-61
2021/12/08 00:30:03;;;;;;;9.23;3.97;;;;;;;;;;5105217;28;20040;-62
2021/12/08 00:32:32;;;;;;;11.13;5.25;;;;;;;;;;5105027;28;20094;-62
2021/12/08 00:34:58;;;;;;;13.25;5.03;;;;;;;;;;5093646;28;20577;-62
2021/12/08 00:37:24;;;;;;;9.30;5.18;;;;;;;;;;5084275;28;20058;-61
2021/12/08 00:39:52;;;;;;;8.70;4.90;;;;;;;;;;5084926;28;20064;-61
2021/12/08 00:42:19;;;;;;;10.68;5.18;;;;;;;;;;5084688;28;20056;-61
2021/12/08 00:44:45;;;;;;;10.82;4.90;;;;;;;;;;5084485;28;20079;-61
2021/12/08 00:47:11;;;;;;;9.80;5.25;;;;;;;;;;5084505;28;20055;-61
2021/12/08 00:49:39;;;;;;;13.30;5.28;;;;;;;;;;5088007;28;20071;-61
2021/12/08 00:52:05;;;;;;;14.88;5.25;;;;;;;;;;5104454;28;20048;-61
2021/12/08 00:54:32;;;;;;;13.13;4.90;;;;;;;;;;5105071;28;20044;-62
2021/12/08 00:56:58;;;;;;;12.02;5.25;;;;;;;;;;5104698;28;20040;-60
2021/12/08 00:59:24;;;;;;;15.70;5.40;;;;;;;;;;5104596;28;20048;-61
2021/12/08 01:01:50;;;;;;;15.38;6.28;;;;;;;;;;5104536;28;20576;-62
2021/12/08 01:04:17;;;;;;;13.88;4.85;;;;;;;;;;5103579;28;20447;-62
2021/12/08 01:06:43;;;;;;;11.80;4.60;;;;;;;;;;5096500;28;20039;-62
2021/12/08 01:09:12;;;;;;;11.02;5.68;;;;;;;;;;5084451;28;20095;-61
2021/12/08 01:11:38;;;;;;;7.32;4.05;;;;;;;;;;5091642;28;20048;-62
2021/12/08 01:14:05;;;;;;;18.92;6.40;;;;;;;;;;5104489;28;20099;-62
2021/12/08 01:16:31;;;;;;;15.00;5.72;;;;;;;;;;5104622;28;20036;-60
2021/12/08 01:18:58;;;;;;;14.88;5.85;;;;;;;;;;5103601;28;20056;-62
2021/12/08 01:21:24;;;;;;;14.70;5.45;;;;;;;;;;5085662;28;20059;-62
2021/12/08 01:23:50;;;;;;;14.88;5.60;;;;;;;;;;5096977;28;20052;-62
2021/12/08 01:26:17;;;;;;;8.75;4.95;;;;;;;;;;5084118;28;20068;-62
2021/12/08 01:28:44;;;;;;;13.80;5.53;;;;;;;;;;5084008;28;20055;-62
2021/12/08 01:31:10;;;;;;;14.05;5.20;;;;;;;;;;5084174;28;20124;-62
2021/12/08 01:33:36;;;;;;;11.52;4.75;;;;;;;;;;5087194;28;20097;-62
2021/12/08 01:36:04;;;;;;;8.75;4.90;;;;;;;;;;5083561;28;20060;-61
2021/12/08 01:38:30;;;;;;;13.02;5.38;;;;;;;;;;5084125;28;20437;-62
2021/12/08 01:40:56;;;;;;;12.75;4.43;;;;;;;;;;5083927;28;20090;-62
2021/12/08 01:43:28;;;;;;;9.25;4.70;;;;;;;;;;5084072;28;20437;-60
2021/12/08 01:46:02;;;;;;;9.25;4.50;;;;;;;;;;5065935;28;20063;-61
2021/12/08 01:48:32;;;;;;;11.73;4.72;;;;;;;;;;5068464;28;20032;-60
2021/12/08 01:51:02;;;;;;;9.77;4.45;;;;;;;;;;5085057;28;20059;-62
2021/12/08 01:53:28;;;;;;;7.18;3.88;;;;;;;;;;5104273;28;20040;-60
2021/12/08 01:55:55;;;;;;;12.25;5.63;;;;;;;;;;5104026;28;20044;-61
2021/12/08 01:58:22;;;;;;;9.70;4.47;;;;;;;;;;5104328;28;20110;-62
2021/12/08 02:00:51;;;;;;;13.47;5.30;;;;;;;;;;5103970;28;20078;-62
2021/12/08 02:03:18;;;;;;;13.88;4.85;;;;;;;;;;5104002;28;20285;-62
2021/12/08 02:05:44;;;;;;;15.82;4.78;;;;;;;;;;5089585;28;20101;-62
2021/12/08 02:08:11;;;;;;;11.68;5.10;;;;;;;;;;5065975;28;20064;-62
2021/12/08 02:10:38;;;;;;;11.00;4.28;;;;;;;;;;5083515;28;20044;-61
2021/12/08 02:13:04;;;;;;;13.90;4.97;;;;;;;;;;5083816;28;20098;-62
2021/12/08 02:15:31;;;;;;;7.45;4.55;;;;;;;;;;5086429;28;20135;-61
2021/12/08 02:17:57;;;;;;;13.43;4.72;;;;;;;;;;5087423;28;20108;-62
2021/12/08 02:20:25;;;;;;;10.52;5.35;;;;;;;;;;5088028;28;20059;-61
2021/12/08 02:22:51;;;;;;;10.02;5.00;;;;;;;;;;5087722;28;20049;-61
2021/12/08 02:25:19;;;;;;;14.77;5.60;;;;;;;;;;5087123;28;20040;-61
2021/12/08 02:27:45;;;;;;;;;;;;;;;;;;5087473;28;20133;-60
2021/12/08 02:30:36;;;;;;;6.63;5.07;;;;;;;;;;5087119;28;19921;-61
2021/12/08 02:47:06;;;;;;;12.00;4.88;;;;;;;;;;5057579;28;20053;-61
2021/12/08 02:49:33;;;;;;;9.18;5.20;;;;;;;;;;5086828;28;20055;-61
2021/12/08 02:52:00;;;;;;;6.38;4.30;;;;;;;;;;5086347;28;20040;-61
2021/12/08 02:54:32;;;;;;;10.25;3.17;;;;;;;;;;5086838;28;20044;-61
2021/12/08 02:56:58;;;;;;;10.32;5.03;;;;;;;;;;5086731;28;20068;-61
2021/12/08 02:59:25;;;;;;;8.95;4.75;;;;;;;;;;5086925;28;20119;-61
2021/12/08 03:01:51;;;;;;;9.40;4.63;;;;;;;;;;5087065;28;20044;-61
2021/12/08 03:04:17;;;;;;;11.73;5.15;;;;;;;;;;5094168;28;20096;-61
2021/12/08 03:06:43;;;;;;;9.07;5.45;;;;;;;;;;5106179;28;20048;-60
2021/12/08 03:09:09;;;;;;;12.45;4.68;;;;;;;;;;5106775;28;20563;-61
2021/12/08 03:11:36;;;;;;;9.25;5.00;;;;;;;;;;5106618;28;20040;-60
2021/12/08 03:14:05;;;;;;;14.05;4.40;;;;;;;;;;5106714;28;20067;-60
2021/12/08 03:16:31;;;;;;;10.13;4.72;;;;;;;;;;5106734;28;20047;-60
2021/12/08 03:18:58;;;;;;;10.32;4.78;;;;;;;;;;5098494;28;20044;-61
2021/12/08 03:21:29;;;;;;;13.05;5.05;;;;;;;;;;5085648;28;20059;-61
2021/12/08 03:26:35;;;;;;;;;;;;;;;;;;5085447;28;20526;-61
2021/12/08 03:29:04;;;;;;;11.68;5.68;;;;;;;;;;5086320;28;19931;-60
2021/12/08 03:31:36;;;;;;;9.52;4.78;;;;;;;;;;5085890;28;20102;-61
2021/12/08 03:34:03;;;;;;;10.38;5.97;;;;;;;;;;5092483;28;20086;-60
2021/12/08 03:36:29;;;;;;;7.70;5.63;;;;;;;;;;5105775;28;20052;-60
2021/12/08 03:38:55;;;;;;;10.82;5.63;;;;;;;;;;5106319;28;20054;-60
2021/12/08 03:41:21;;;;;;;9.77;6.80;;;;;;;;;;5088011;28;20052;-62
2021/12/08 03:43:48;;;;;;;9.10;5.28;;;;;;;;;;5106052;28;20044;-60
2021/12/08 03:46:16;;;;;;;8.82;5.95;;;;;;;;;;5106387;28;20044;-60
2021/12/08 03:48:47;;;;;;;12.68;7.38;;;;;;;;;;5104284;28;20391;-61
2021/12/08 03:51:14;;;;;;;12.32;6.95;;;;;;;;;;5105156;28;20127;-61
2021/12/08 03:53:41;;;;;;;11.00;6.38;;;;;;;;;;5106083;28;20052;-60
2021/12/08 03:56:07;;;;;;;11.73;7.50;;;;;;;;;;5105699;28;20059;-60
2021/12/08 03:58:34;;;;;;;12.50;7.28;;;;;;;;;;5087735;28;20048;-60
2021/12/08 04:01:00;;;;;;;11.50;6.90;;;;;;;;;;5087853;28;20112;-61
2021/12/08 04:03:29;;;;;;;16.00;8.02;;;;;;;;;;5077902;28;20107;-62
2021/12/08 04:05:58;;;;;;;10.45;7.35;;;;;;;;;;5067112;28;20076;-62
2021/12/08 04:08:32;;;;;;;13.68;7.05;;;;;;;;;;5085299;28;20044;-61
2021/12/08 04:10:59;;;;;;;17.48;8.63;;;;;;;;;;5085062;28;20044;-61
2021/12/08 04:13:31;;;;;;;16.33;8.40;;;;;;;;;;5085466;28;20048;-61
2021/12/08 04:15:58;;;;;;;19.38;9.10;;;;;;;;;;5085236;28;20048;-61
2021/12/08 04:18:24;;;;;;;13.02;8.40;;;;;;;;;;5095876;28;20059;-61
2021/12/08 04:20:52;;;;;;;14.02;8.27;;;;;;;;;;5104853;28;20308;-61
2021/12/08 04:23:19;;;;;;;12.10;9.38;;;;;;;;;;5105352;28;20067;-61
2021/12/08 04:25:47;;;;;;;15.57;8.95;;;;;;;;;;5105017;28;20044;-61
2021/12/08 04:28:15;;;;;;;15.93;9.88;;;;;;;;;;5105229;28;20127;-62
2021/12/08 04:30:50;;;;;;;15.98;9.73;;;;;;;;;;5105474;28;20425;-61
2021/12/08 04:33:16;;;;;;;16.42;10.43;;;;;;;;;;5103558;28;20047;-61
2021/12/08 04:35:46;;;;;;;13.65;10.20;;;;;;;;;;5085145;28;20157;-61
2021/12/08 04:38:14;;;;;;;19.70;10.07;;;;;;;;;;5084570;28;20108;-61
2021/12/08 04:45:59;;;;;;;17.08;10.80;;;;;;;;;;5084608;28;20048;-62
2021/12/08 05:09:54;;;;;;;19.10;11.68;;;;;;;;;;5104709;28;20044;-61
2021/12/08 05:12:22;;;;;;;14.80;10.85;;;;;;;;;;5104438;28;20414;-62
2021/12/08 05:14:51;;;;;;;15.45;11.45;;;;;;;;;;5086960;28;20130;-61
2021/12/08 05:17:20;;;;;;;14.90;11.07;;;;;;;;;;5104527;28;20112;-61
2021/12/08 05:19:49;;;;;;;17.73;10.90;;;;;;;;;;5104113;28;20074;-62
2021/12/08 05:22:19;;;;;;;16.52;10.82;;;;;;;;;;5101133;28;20043;-60
2021/12/08 05:24:48;;;;;;;16.17;10.77;;;;;;;;;;5104471;28;20039;-60
2021/12/08 05:27:18;;;;;;;16.05;11.85;;;;;;;;;;5104302;28;20496;-62
2021/12/08 05:29:46;;;;;;;21.60;11.85;;;;;;;;;;5104872;28;20176;-61
2021/12/08 05:32:12;;;;;;;16.52;10.18;;;;;;;;;;5104179;28;20040;-62
2021/12/08 05:34:39;;;;;;;15.82;11.50;;;;;;;;;;5104058;28;20048;-60
2021/12/08 05:37:09;;;;;;;18.75;11.18;;;;;;;;;;5097847;28;20076;-60
2021/12/08 05:39:35;;;;;;;24.08;12.50;;;;;;;;;;5084237;28;20108;-60
2021/12/08 05:42:05;;;;;;;17.15;11.15;;;;;;;;;;5065825;28;20419;-61
2021/12/08 05:44:31;;;;;;;15.70;10.90;;;;;;;;;;5084371;28;20097;-60
2021/12/08 05:46:59;;;;;;;18.88;11.85;;;;;;;;;;5083866;28;20056;-60
2021/12/08 05:49:26;;;;;;;16.00;11.10;;;;;;;;;;5085049;28;20051;-60
2021/12/08 05:51:53;;;;;;;17.13;11.57;;;;;;;;;;5093163;28;20072;-60
2021/12/08 05:54:25;;;;;;;14.77;10.93;;;;;;;;;;5090000;28;20051;-60
2021/12/08 05:56:54;;;;;;;17.98;11.05;;;;;;;;;;5108180;28;20040;-60
2021/12/08 05:59:20;;;;;;;12.38;11.10;;;;;;;;;;5108636;28;20047;-61
2021/12/08 06:01:46;;;;;;;18.88;10.30;;;;;;;;;;5107899;28;20058;-62
2021/12/08 06:04:13;;;;;;;15.63;9.82;;;;;;;;;;5102103;28;20048;-61
2021/12/08 06:06:39;;;;;;;16.33;9.98;;;;;;;;;;5086901;28;20496;-61
2021/12/08 06:09:07;;;;;;;16.13;9.40;;;;;;;;;;5087649;28;20183;-61
2021/12/08 06:11:33;;;;;;;15.60;10.00;;;;;;;;;;5087597;28;20124;-62
2021/12/08 06:14:00;;;;;;;13.32;9.25;;;;;;;;;;5070097;28;20083;-61
2021/12/08 06:16:30;;;;;;;17.70;9.70;;;;;;;;;;5087475;28;20044;-61
2021/12/08 06:18:57;;;;;;;13.23;8.85;;;;;;;;;;5073812;28;20048;-61
2021/12/08 06:21:24;;;;;;;19.40;9.57;;;;;;;;;;5107140;28;20437;-61
2021/12/08 06:23:51;;;;;;;17.58;9.40;;;;;;;;;;5107970;28;20445;-61
2021/12/08 06:26:18;;;;;;;16.50;9.50;;;;;;;;;;5107632;28;20044;-61
2021/12/08 06:28:45;;;;;;;12.10;9.18;;;;;;;;;;5107877;28;20082;-61
2021/12/08 06:31:12;;;;;;;14.88;8.43;;;;;;;;;;5107388;28;20086;-60
2021/12/08 06:33:38;;;;;;;14.40;9.00;;;;;;;;;;5105560;28;20040;-61
2021/12/08 06:36:07;;;;;;;11.07;7.25;;;;;;;;;;5102614;28;20075;-61
2021/12/08 06:38:33;;;;;;;12.65;8.68;;;;;;;;;;5080898;28;20094;-61
2021/12/08 06:41:02;;;;;;;13.40;9.00;;;;;;;;;;5098267;28;20044;-61
2021/12/08 06:43:33;;;;;;;13.73;9.18;;;;;;;;;;5093213;28;20539;-61
2021/12/08 06:46:00;;;;;;;14.27;8.70;;;;;;;;;;5094716;28;20095;-61
2021/12/08 06:48:28;;;;;;;19.67;8.05;;;;;;;;;;5082821;28;20048;-61
2021/12/08 06:50:57;;;;;;;13.13;7.30;;;;;;;;;;5089903;28;20036;-61
2021/12/08 06:53:24;;;;;;;13.60;8.50;;;;;;;;;;5088386;28;20127;-61
2021/12/08 06:55:57;;;;;;;17.77;7.75;;;;;;;;;;5097552;28;20055;-61
2021/12/08 06:58:25;;;;;;;12.85;7.35;;;;;;;;;;5094203;28;20045;-61
2021/12/08 07:01:10;;;;;;;11.30;6.90;;;;;;;;;;5098227;28;20032;-61
2021/12/08 07:03:46;;;;;;;13.93;9.02;;;;;;;;;;5092564;28;20040;-61
2021/12/08 07:06:40;;;;;;;9.50;5.90;;;;;;;;;;5103174;28;20052;-61
2021/12/08 07:09:03;;;;;;;20.05;8.57;;;;;;;;;;5105412;28;20051;-61
2021/12/08 07:11:30;;;;;;;16.38;7.65;;;;;;;;;;5099612;28;20814;-61
2021/12/08 07:13:57;;;;;;;11.55;7.32;;;;;;;;;;5095357;28;20040;-61
2021/12/08 07:16:25;;;;;;;11.97;7.73;;;;;;;;;;5096049;28;20036;-61
2021/12/08 07:18:57;;;;;;;15.10;9.18;;;;;;;;;;5098820;28;20047;-61
2021/12/08 07:21:32;;;;;;;21.38;8.20;;;;;;;;;;5099995;28;20039;-61
2021/12/08 07:24:05;;;;;;;17.83;8.13;;;;;;;;;;5066262;28;20047;-61
2021/12/08 07:26:33;;;;;;;12.68;6.93;;;;;;;;;;5099830;28;20047;-61
2021/12/08 07:29:00;;;;;;;11.18;6.93;;;;;;;;;;5088576;28;20036;-61
2021/12/08 07:31:33;;;;;;;12.40;7.47;;;;;;;;;;5094279;28;20067;-61
2021/12/08 07:34:04;;;;;;;19.50;8.40;;;;;;;;;;5106110;28;20559;-61
2021/12/08 07:36:32;;;;;;;18.20;7.47;;;;;;;;;;5106140;28;20044;-60
2021/12/08 07:38:59;;;;;;;10.05;6.90;;;;;;;;;;5106442;28;20051;-60
2021/12/08 07:41:31;;;;;;;18.75;7.22;;;;;;;;;;5104739;28;20104;-60
2021/12/08 07:43:58;;;;;;;11.05;6.15;;;;;;;;;;5088373;28;20075;-60
2021/12/08 07:46:27;;;;;;;10.43;6.72;;;;;;;;;;5085837;28;20040;-61
2021/12/08 07:48:57;;;;;;;11.23;5.97;;;;;;;;;;5086017;28;20047;-61
2021/12/08 07:51:53;;;;;;;16.83;7.07;;;;;;;;;;5085338;28;20040;-60
2021/12/08 07:54:20;;;;;;;14.48;6.38;;;;;;;;;;5068579;28;20052;-60
2021/12/08 07:56:48;;;;;;;12.20;5.47;;;;;;;;;;5086429;28;20048;-61
2021/12/08 07:59:16;;;;;;;10.25;5.38;;;;;;;;;;5090786;28;20044;-61
2021/12/08 08:01:45;;;;;;;14.95;4.80;;;;;;;;;;5086845;28;20052;-61
2021/12/08 08:04:13;;;;;;;10.45;5.05;;;;;;;;;;5105762;28;20565;-61
2021/12/08 08:06:41;;;;;;;5.35;4.00;;;;;;;;;;5105341;28;20044;-61
2021/12/08 08:09:09;;;;;;;8.60;4.30;;;;;;;;;;5105465;28;20047;-61
2021/12/08 08:11:35;;;;;;;;;;;;;;;;;;5083303;28;20047;-61
2021/12/08 08:14:03;;;;;;;11.32;3.78;;;;;;;;;;5101928;28;19959;-61
2021/12/08 08:16:32;;;;;;;5.88;2.47;;;;;;;;;;5105440;28;20040;-61
2021/12/08 08:19:02;;;;;;;19.98;4.03;;;;;;;;;;5086616;28;20651;-60
2021/12/08 08:21:29;;;;;;;13.90;3.65;;;;;;;;;;5084548;28;20055;-60
2021/12/08 08:23:58;;;;;;;12.93;4.50;;;;;;;;;;5067189;28;20060;-61
2021/12/08 08:26:24;;;;;;;12.10;3.67;;;;;;;;;;5070064;28;20044;-62
2021/12/08 08:28:52;;;;;;;11.13;4.05;;;;;;;;;;5084723;28;20102;-62
2021/12/08 08:31:20;;;;;;;7.60;3.70;;;;;;;;;;5093946;28;20072;-61
2021/12/08 08:33:47;;;;;;;9.63;4.50;;;;;;;;;;5103717;28;20050;-62
2021/12/08 08:36:15;;;;;;;10.52;3.90;;;;;;;;;;5084306;28;20052;-61
2021/12/08 08:38:44;;;;;;;11.00;4.10;;;;;;;;;;5084795;28;20048;-62
2021/12/08 08:41:13;;;;;;;9.93;3.13;;;;;;;;;;5085014;28;20100;-63
2021/12/08 08:43:39;;;;;;;11.60;4.53;;;;;;;;;;5093234;28;20049;-62
2021/12/08 08:46:11;;;;;;;6.65;3.88;;;;;;;;;;5084614;28;20040;-61
2021/12/08 08:48:48;;;;;;;9.57;3.92;;;;;;;;;;5086026;28;20098;-61
2021/12/08 08:51:18;;;;;;;9.25;3.60;;;;;;;;;;5091003;28;20564;-62
2021/12/08 08:53:45;;;;;;;5.53;2.38;;;;;;;;;;5105184;28;20070;-62
2021/12/08 08:56:23;;;;;;;10.77;3.25;;;;;;;;;;5104856;28;20072;-62
2021/12/08 08:58:53;;;;;;;11.05;3.35;;;;;;;;;;5104918;28;20057;-62
2021/12/08 09:01:27;;;;;;;6.95;2.78;;;;;;;;;;5066914;28;20072;-61
2021/12/08 09:03:55;;;;;;;10.90;3.75;;;;;;;;;;5084198;28;20040;-62
2021/12/08 09:06:27;;;;;;;10.98;3.00;;;;;;;;;;5104256;28;20148;-61
2021/12/08 09:08:54;;;;;;;15.15;3.05;;;;;;;;;;5104737;28;20051;-61
2021/12/08 09:11:22;;;;;;;7.90;2.70;;;;;;;;;;5104525;28;20483;-61
2021/12/08 09:13:48;;;;;;;6.88;2.20;;;;;;;;;;5104646;28;20036;-61
2021/12/08 09:16:18;;;;;;;11.43;3.17;;;;;;;;;;5104440;28;20036;-62
2021/12/08 09:18:53;;;;;;;13.15;3.20;;;;;;;;;;5087067;28;20098;-62
2021/12/08 09:21:25;;;;;;;14.02;2.88;;;;;;;;;;5084192;28;20063;-61
2021/12/08 09:24:23;;;;;;;13.15;2.97;;;;;;;;;;5103165;28;20500;-61
2021/12/08 09:26:52;;;;;;;13.50;2.40;;;;;;;;;;5081009;28;20044;-61
2021/12/08 09:29:24;;;;;;;14.43;3.45;;;;;;;;;;5102554;28;20139;-61
2021/12/08 09:31:56;;;;;;;7.28;2.63;;;;;;;;;;5103625;28;20036;-61
2021/12/08 09:34:28;;;;;;;14.18;3.03;;;;;;;;;;5103664;28;20052;-61
2021/12/08 09:37:05;;;;;;;10.38;2.80;;;;;;;;;;5103325;28;20458;-61
2021/12/08 09:39:46;;;;;;;6.05;2.20;;;;;;;;;;5094401;28;20534;-61
2021/12/08 09:42:15;;;;;;;11.73;2.85;;;;;;;;;;5085109;28;20542;-61
2021/12/08 09:44:43;;;;;;;12.93;2.53;;;;;;;;;;5103446;28;20126;-62
2021/12/08 09:47:10;;;;;;;13.10;2.67;;;;;;;;;;5103534;28;20044;-61
2021/12/08 09:49:36;;;;;;;11.05;2.40;;;;;;;;;;5102168;28;20115;-62
2021/12/08 09:52:05;;;;;;;11.95;2.55;;;;;;;;;;5103283;28;20079;-61
2021/12/08 09:54:32;;;;;;;9.65;2.72;;;;;;;;;;5102818;28;20040;-62
2021/12/08 09:56:59;;;;;;;8.80;2.22;;;;;;;;;;5098614;28;20044;-62
2021/12/08 09:59:47;;;;;;;9.43;2.63;;;;;;;;;;5091428;28;20055;-62
2021/12/08 10:02:26;;;;;;;12.43;3.65;;;;;;;;;;5096742;28;20044;-62
2021/12/08 10:04:52;;;;;;;8.23;2.30;;;;;;;;;;5099829;28;20412;-62
2021/12/08 10:07:19;;;;;;;10.73;2.58;;;;;;;;;;5098518;28;20051;-61
2021/12/08 10:09:45;;;;;;;13.17;2.57;;;;;;;;;;5097689;28;20066;-61
2021/12/08 10:12:12;;;;;;;8.18;2.40;;;;;;;;;;5081479;28;20875;-62
2021/12/08 10:14:39;;;;;;;12.82;2.53;;;;;;;;;;5100814;28;20040;-62
2021/12/08 10:17:06;;;;;;;11.30;2.50;;;;;;;;;;5098620;28;20076;-61
2021/12/08 10:19:32;;;;;;;13.88;3.53;;;;;;;;;;5102387;28;20064;-61
2021/12/08 10:21:59;;;;;;;4.85;2.30;;;;;;;;;;5101496;28;20043;-62
2021/12/08 10:24:28;;;;;;;15.60;2.97;;;;;;;;;;5097850;28;20095;-62
2021/12/08 10:27:01;;;;;;;6.18;2.67;;;;;;;;;;5081200;28;20139;-62
2021/12/08 10:29:28;;;;;;;8.80;2.22;;;;;;;;;;5072961;28;20041;-62
2021/12/08 10:31:55;;;;;;;11.25;2.53;;;;;;;;;;5114689;28;20039;-62
2021/12/08 10:34:25;;;;;;;8.32;2.10;;;;;;;;;;5103107;28;20047;-62
2021/12/08 10:36:56;;;;;;;8.90;2.35;;;;;;;;;;5104206;28;20056;-62
2021/12/08 10:39:47;;;;;;;11.98;2.33;;;;;;;;;;5103031;28;20044;-61
2021/12/08 10:42:18;;;;;;;22.30;3.15;;;;;;;;;;5104745;28;20601;-61
2021/12/08 10:44:56;;;;;;;8.32;2.63;;;;;;;;;;5099453;28;20044;-61
2021/12/08 10:47:23;;;;;;;6.78;2.03;;;;;;;;;;5082825;28;20048;-62
2021/12/08 10:55:05;;;;;;;7.45;1.98;;;;;;;;;;5105500;28;20052;-62
2021/12/08 10:57:39;;;;;;;8.23;2.47;;;;;;;;;;5082827;28;20055;-62
2021/12/08 11:00:10;;;;;;;8.68;2.75;;;;;;;;;;5096846;28;20053;-62
2021/12/08 11:02:38;;;;;;;11.25;2.25;;;;;;;;;;5103862;28;21756;-61
2021/12/08 11:05:05;;;;;;;14.68;2.80;;;;;;;;;;5096450;28;20051;-61
2021/12/08 11:07:31;;;;;;;11.13;2.50;;;;;;;;;;5091796;28;20068;-61
2021/12/08 11:09:57;;;;;;;15.15;2.53;;;;;;;;;;5097017;28;20067;-62
2021/12/08 11:12:44;;;;;;;10.23;2.42;;;;;;;;;;5067407;28;20120;-62
2021/12/08 11:15:22;;;;;;;14.45;3.20;;;;;;;;;;5096422;28;20079;-62
2021/12/08 11:17:48;;;;;;;11.10;2.22;;;;;;;;;;5099138;28;20041;-62
2021/12/08 11:20:19;;;;;;;8.93;2.53;;;;;;;;;;5085654;28;20364;-62
2021/12/08 11:22:58;;;;;;;11.32;2.20;;;;;;;;;;5093881;28;20040;-62
2021/12/08 11:25:35;;;;;;;12.82;2.05;;;;;;;;;;5098446;28;20097;-62
2021/12/08 11:28:20;;;;;;;11.38;2.78;;;;;;;;;;5103521;28;20108;-62
2021/12/08 11:30:46;;;;;;;8.95;2.60;;;;;;;;;;5094216;28;20051;-62
2021/12/08 11:33:18;;;;;;;13.00;2.85;;;;;;;;;;5099520;28;20051;-62
2021/12/08 11:35:45;;;;;;;11.82;2.53;;;;;;;;;;5093188;28;20254;-62
2021/12/08 11:38:11;;;;;;;10.15;1.85;;;;;;;;;;5102184;28;20054;-62
2021/12/08 11:40:38;;;;;;;8.05;2.58;;;;;;;;;;5104479;28;20051;-61
2021/12/08 11:43:04;;;;;;;9.32;2.30;;;;;;;;;;5096667;28;20044;-62
2021/12/08 11:45:39;;;;;;;7.20;2.17;;;;;;;;;;5096611;28;20057;-61
2021/12/08 11:48:20;;;;;;;8.98;2.63;;;;;;;;;;5097199;28;20392;-62
2021/12/08 11:50:46;;;;;;;13.88;2.47;;;;;;;;;;5096553;28;20084;-61
2021/12/08 11:53:20;;;;;;;9.77;2.78;;;;;;;;;;5096852;28;20479;-62
2021/12/08 11:55:46;;;;;;;11.60;2.47;;;;;;;;;;5097784;28;20051;-62
2021/12/08 11:58:12;;;;;;;8.23;2.40;;;;;;;;;;5095478;28;20073;-61
2021/12/08 12:00:41;;;;;;;8.90;2.35;;;;;;;;;;5100047;28;20156;-62
2021/12/08 12:03:14;;;;;;;11.40;2.58;;;;;;;;;;5098090;28;20040;-61
2021/12/08 12:05:45;;;;;;;15.93;3.20;;;;;;;;;;5093828;28;20037;-62
2021/12/08 12:08:13;;;;;;;11.13;2.65;;;;;;;;;;5084098;28;20403;-62
2021/12/08 12:10:40;;;;;;;11.68;2.67;;;;;;;;;;5098820;28;20063;-62
2021/12/08 12:13:11;;;;;;;11.25;2.50;;;;;;;;;;5096134;28;20052;-62
2021/12/08 12:15:38;;;;;;;11.90;3.38;;;;;;;;;;5082556;28;20044;-62
2021/12/08 12:18:05;;;;;;;8.40;2.55;;;;;;;;;;5093679;28;20044;-62
2021/12/08 12:20:40;;;;;;;8.93;3.72;;;;;;;;;;5080667;28;20059;-61
2021/12/08 12:23:06;;;;;;;10.77;2.92;;;;;;;;;;5103621;28;20059;-62
2021/12/08 12:25:35;;;;;;;6.50;2.13;;;;;;;;;;5098112;28;20044;-61
2021/12/08 12:28:10;;;;;;;7.72;2.75;;;;;;;;;;5081453;28;21630;-62
2021/12/08 12:30:55;;;;;;;9.05;2.15;;;;;;;;;;5094890;28;20044;-62
2021/12/08 12:33:22;;;;;;;9.77;2.80;;;;;;;;;;5079625;28;20052;-62
2021/12/08 12:35:56;;;;;;;9.73;2.47;;;;;;;;;;5102637;28;20056;-62
2021/12/08 12:38:33;;;;;;;15.77;2.85;;;;;;;;;;5086213;28;20290;-62
2021/12/08 12:41:00;;;;;;;10.77;2.83;;;;;;;;;;5085887;28;20052;-62
2021/12/08 12:43:28;;;;;;;7.60;2.78;;;;;;;;;;5101479;28;20040;-61
2021/12/08 12:46:14;;;;;;;10.38;2.53;;;;;;;;;;5097807;28;20043;-61
2021/12/08 12:48:41;;;;;;;6.18;2.22;;;;;;;;;;5094293;28;20046;-61
2021/12/08 12:51:08;;;;;;;9.97;2.73;;;;;;;;;;5083877;28;20464;-61
2021/12/08 12:53:37;;;;;;;9.00;2.38;;;;;;;;;;5097370;28;20044;-62
2021/12/08 12:56:03;;;;;;;9.07;2.70;;;;;;;;;;5099658;28;20050;-62
2021/12/08 12:58:48;;;;;;;11.68;3.00;;;;;;;;;;5092800;28;20066;-61
2021/12/08 13:01:19;;;;;;;9.45;2.53;;;;;;;;;;5095885;28;20044;-61
2021/12/08 13:03:50;;;;;;;20.90;3.75;;;;;;;;;;5095338;28;20185;-61
2021/12/08 13:06:18;;;;;;;7.90;2.53;;;;;;;;;;5098233;28;20043;-62
2021/12/08 13:08:46;;;;;;;9.88;2.60;;;;;;;;;;5094851;28;20044;-62
2021/12/08 13:11:27;;;;;;;12.82;2.85;;;;;;;;;;5100878;28;20075;-62
2021/12/08 13:13:54;;;;;;;12.65;3.45;;;;;;;;;;5098939;28;20050;-62
2021/12/08 13:16:28;;;;;;;7.30;2.80;;;;;;;;;;5099410;28;20317;-61
2021/12/08 13:18:58;;;;;;;11.00;2.70;;;;;;;;;;5094376;28;20048;-61
2021/12/08 13:21:45;;;;;;;10.63;3.03;;;;;;;;;;5080301;28;20059;-62
2021/12/08 13:24:31;;;;;;;12.88;3.00;;;;;;;;;;5099594;28;20036;-61
2021/12/08 13:27:28;;;;;;;10.13;2.63;;;;;;;;;;5096381;28;20044;-60
2021/12/08 13:30:07;;;;;;;10.25;2.67;;;;;;;;;;5101171;28;20036;-60
2021/12/08 13:32:46;;;;;;;7.38;2.42;;;;;;;;;;5102213;28;20131;-61
2021/12/08 13:35:13;;;;;;;6.78;2.40;;;;;;;;;;5093734;28;20053;-61
2021/12/08 13:37:56;;;;;;;12.13;4.07;;;;;;;;;;5092897;28;20074;-61
2021/12/08 13:40:39;;;;;;;9.90;2.42;;;;;;;;;;5099330;28;20330;-61
2021/12/08 13:43:07;;;;;;;12.13;2.92;;;;;;;;;;5103318;28;20071;-61
2021/12/08 13:45:44;;;;;;;10.80;2.85;;;;;;;;;;5093916;28;20044;-61
2021/12/08 13:48:10;;;;;;;10.10;2.63;;;;;;;;;;5098086;28;20067;-61
2021/12/08 13:50:37;;;;;;;10.60;2.65;;;;;;;;;;5101016;28;20178;-61
2021/12/08 13:53:12;;;;;;;7.95;2.03;;;;;;;;;;5077822;28;20111;-60
2021/12/08 13:55:40;;;;;;;7.13;2.70;;;;;;;;;;5091411;28;20048;-61
2021/12/08 13:58:07;;;;;;;12.00;2.15;;;;;;;;;;5066112;28;20044;-61
2021/12/08 14:00:38;;;;;;;9.98;2.10;;;;;;;;;;5098307;28;20178;-60
2021/12/08 14:03:18;;;;;;;7.18;2.28;;;;;;;;;;5097796;28;20048;-61
2021/12/08 14:05:56;;;;;;;7.03;2.10;;;;;;;;;;5095299;28;20500;-61
2021/12/08 14:08:33;;;;;;;8.90;2.13;;;;;;;;;;5099159;28;20124;-60
2021/12/08 14:11:10;;;;;;;5.95;2.00;;;;;;;;;;5096414;28;20041;-61
2021/12/08 14:13:37;;;;;;;12.80;3.17;;;;;;;;;;5099352;28;20119;-61
2021/12/08 14:16:05;;;;;;;6.60;2.40;;;;;;;;;;5099253;28;20040;-61
2021/12/08 14:18:36;;;;;;;8.57;2.50;;;;;;;;;;5098880;28;20040;-61
2021/12/08 14:21:15;;;;;;;9.07;1.85;;;;;;;;;;5096200;28;20048;-61
2021/12/08 14:23:51;;;;;;;7.63;1.92;;;;;;;;;;5088217;28;20050;-61
2021/12/08 14:26:19;;;;;;;9.57;3.15;;;;;;;;;;5100183;28;20044;-61
2021/12/08 14:28:45;;;;;;;;;;;;;;;;;;5096628;28;20052;-61
2021/12/08 14:31:29;;;;;;;8.75;2.17;;;;;;;;;;5081448;28;19920;-60
2021/12/08 14:33:58;;;;;;;7.88;2.30;;;;;;;;;;5078383;28;20048;-61
2021/12/08 14:36:32;;;;;;;13.27;2.50;;;;;;;;;;5101252;28;20052;-61
2021/12/08 14:38:59;;;;;;;12.77;2.80;;;;;;;;;;5102061;28;20040;-60
2021/12/08 14:41:33;;;;;;;5.20;1.90;;;;;;;;;;5096045;28;20066;-61
2021/12/08 14:44:04;;;;;;;12.15;2.83;;;;;;;;;;5099364;28;20503;-61
2021/12/08 14:46:30;;;;;;;7.05;2.28;;;;;;;;;;5097571;28;20040;-61
2021/12/08 14:48:58;;;;;;;6.47;2.92;;;;;;;;;;5077853;28;20050;-61
2021/12/08 14:51:25;;;;;;;8.40;2.00;;;;;;;;;;5102369;28;20052;-61
2021/12/08 14:53:51;;;;;;;12.63;3.05;;;;;;;;;;5092884;28;20159;-60
2021/12/08 14:56:17;;;;;;;9.60;2.53;;;;;;;;;;5102279;28;20044;-60
2021/12/08 14:58:44;;;;;;;7.60;2.50;;;;;;;;;;5104985;28;20073;-61
2021/12/08 15:01:14;;;;;;;8.88;2.60;;;;;;;;;;5105487;28;20135;-61
2021/12/08 15:03:41;;;;;;;7.03;2.25;;;;;;;;;;5105512;28;20519;-61
2021/12/08 15:06:08;;;;;;;12.73;3.15;;;;;;;;;;5104568;28;20529;-61
2021/12/08 15:08:40;;;;;;;7.60;2.37;;;;;;;;;;5102063;28;20048;-60
2021/12/08 15:11:07;;;;;;;12.48;3.63;;;;;;;;;;5103406;28;20294;-61
2021/12/08 15:13:34;;;;;;;6.80;1.88;;;;;;;;;;5083507;28;20399;-61
2021/12/08 15:16:00;;;;;;;15.52;3.80;;;;;;;;;;5100342;28;20058;-61
2021/12/08 15:18:28;;;;;;;8.68;2.72;;;;;;;;;;5096807;28;20123;-61
2021/12/08 15:20:59;;;;;;;7.15;2.67;;;;;;;;;;5100076;28;20055;-61
2021/12/08 15:23:42;;;;;;;10.45;2.47;;;;;;;;;;5101300;28;20249;-60
2021/12/08 15:26:10;;;;;;;10.88;2.83;;;;;;;;;;5103635;28;20040;-60
2021/12/08 15:28:36;;;;;;;9.20;3.08;;;;;;;;;;5087306;28;20070;-61
2021/12/08 15:31:04;;;;;;;10.13;2.88;;;;;;;;;;5105121;28;20554;-61
2021/12/08 15:33:31;;;;;;;6.38;2.78;;;;;;;;;;5087835;28;20048;-60
2021/12/08 15:36:09;;;;;;;6.15;2.60;;;;;;;;;;5105217;28;20059;-60
2021/12/08 15:38:35;;;;;;;9.03;3.33;;;;;;;;;;5106126;28;20407;-60
2021/12/08 15:41:01;;;;;;;13.45;3.00;;;;;;;;;;5101148;28;20370;-61